Time;durP1;ratioP1;P1;durP2;ratioP2;P2;SDS_P1;SDS_P2;PMS_P1;PMS_P2;Temp;Humidity;BMP_temperature;BMP_pressure;BME280_temperature;BME280_humidity;BME280_pressure;Samples;Min_cycle;Max_cycle;Signal;HPM_P1;HPM_P2
2021/09/14 00:00:33;;;;;;;2.30;0.50;;;;;;;6.89;95.63;100122.69;2583507;55;20109;-69
2021/09/14 00:03:02;;;;;;;1.27;0.30;;;;;;;6.89;95.59;100120.03;2583454;55;20507;-70
2021/09/14 00:05:31;;;;;;;1.58;0.40;;;;;;;6.95;94.12;100122.28;2583433;55;20127;-67
2021/09/14 00:07:59;;;;;;;1.10;0.40;;;;;;;6.95;95.01;100122.28;2583491;55;20136;-67
2021/09/14 00:10:27;;;;;;;2.50;0.30;;;;;;;6.94;94.86;100125.88;2583501;55;20129;-67
2021/09/14 00:12:55;;;;;;;1.60;0.50;;;;;;;6.94;95.18;100125.88;2583461;55;20117;-69
2021/09/14 00:15:22;;;;;;;1.15;0.60;;;;;;;6.86;96.25;100123.75;2583356;55;20131;-70
2021/09/14 00:17:50;;;;;;;1.33;0.35;;;;;;;6.79;96.12;100120.66;2583489;55;20106;-67
2021/09/14 00:20:18;;;;;;;2.35;0.68;;;;;;;6.79;96.02;100119.84;2583938;55;20125;-70
2021/09/14 00:22:47;;;;;;;2.72;0.68;;;;;;;6.84;96.05;100125.66;2584207;55;20113;-67
2021/09/14 00:25:15;;;;;;;1.02;0.37;;;;;;;6.90;95.87;100124.38;2579124;55;20113;-69
2021/09/14 00:27:43;;;;;;;1.25;0.30;;;;;;;6.94;96.10;100123.22;2584361;55;20109;-67
2021/09/14 00:30:13;;;;;;;1.42;0.43;;;;;;;6.89;96.72;100112.06;2584081;55;20130;-67
2021/09/14 00:32:41;;;;;;;1.52;0.45;;;;;;;6.97;95.40;100125.66;2584218;55;20113;-70
2021/09/14 00:35:09;;;;;;;0.98;0.40;;;;;;;6.94;95.36;100120.56;2584397;55;20676;-70
2021/09/14 00:37:37;;;;;;;0.80;0.40;;;;;;;7.01;95.64;100115.69;2584420;55;20643;-70
2021/09/14 00:40:08;;;;;;;0.65;0.20;;;;;;;6.99;95.94;100118.44;2584210;55;20124;-69
2021/09/14 00:42:36;;;;;;;0.63;0.37;;;;;;;6.98;96.16;100115.91;2584076;55;20196;-70
2021/09/14 00:45:05;;;;;;;0.80;0.60;;;;;;;6.98;96.17;100121.22;2584474;55;20221;-70
2021/09/14 00:47:33;;;;;;;0.93;0.30;;;;;;;6.95;96.95;100127.56;2584241;55;20148;-70
2021/09/14 00:50:07;;;;;;;0.98;0.30;;;;;;;6.93;96.55;100124.19;2584309;55;20503;-67
2021/09/14 00:52:35;;;;;;;1.70;0.28;;;;;;;6.93;96.70;100119.72;2584144;55;20115;-67
2021/09/14 00:55:04;;;;;;;0.90;0.40;;;;;;;6.93;97.47;100124.19;2584088;55;20534;-66
2021/09/14 00:57:33;;;;;;;4.93;0.43;;;;;;;6.94;96.77;100120.56;2584075;55;20126;-70
2021/09/14 01:00:01;;;;;;;1.55;0.45;;;;;;;6.95;96.31;100124.94;2584239;55;20105;-67
2021/09/14 01:02:29;;;;;;;1.95;0.62;;;;;;;6.94;96.55;100120.56;2584174;55;20140;-66
2021/09/14 01:04:58;;;;;;;3.50;0.40;;;;;;;6.99;95.23;100112.31;2584198;55;20113;-67
2021/09/14 01:07:27;;;;;;;3.00;0.50;;;;;;;7.04;94.61;100113.69;2584189;55;20107;-67
2021/09/14 01:09:55;;;;;;;0.62;0.40;;;;;;;7.05;93.88;100107.41;2584081;55;20131;-70
2021/09/14 01:12:24;;;;;;;2.37;0.55;;;;;;;7.02;94.81;100110.28;2584097;55;20157;-70
2021/09/14 01:14:54;;;;;;;1.25;0.50;;;;;;;7.01;94.93;100107.72;2584023;55;20232;-70
2021/09/14 01:17:22;;;;;;;3.70;0.50;;;;;;;6.92;95.60;100111.87;2584037;55;20138;-67
2021/09/14 01:19:50;;;;;;;2.00;0.40;;;;;;;6.90;95.29;100111.97;2584070;55;20120;-70
2021/09/14 01:22:18;;;;;;;0.62;0.30;;;;;;;6.88;94.87;100113.91;2584135;55;20109;-68
2021/09/14 01:24:48;;;;;;;2.10;0.30;;;;;;;6.85;95.67;100108.78;2584072;55;20169;-70
2021/09/14 01:27:15;;;;;;;0.50;0.28;;;;;;;6.89;94.50;100104.13;2578986;55;20109;-67
2021/09/14 01:32:26;;;;;;;0.98;0.50;;;;;;;6.91;93.02;100094.25;2579461;55;20129;-67
2021/09/14 01:34:54;;;;;;;1.62;0.30;;;;;;;6.90;93.23;100092.56;2583927;55;20165;-69
2021/09/14 01:37:22;;;;;;;3.30;0.55;;;;;;;6.94;93.02;100083.44;2584064;55;20152;-67
2021/09/14 01:39:52;;;;;;;1.15;0.37;;;;;;;6.91;93.71;100087.16;2584074;55;20121;-70
2021/09/14 01:42:20;;;;;;;1.62;0.40;;;;;;;6.90;93.46;100087.25;2583936;55;20117;-70
2021/09/14 01:44:48;;;;;;;0.95;0.90;;;;;;;6.85;93.24;100086.75;2583879;55;20160;-68
2021/09/14 01:47:17;;;;;;;1.35;0.50;;;;;;;6.90;92.40;100076.66;2584047;55;20116;-70
2021/09/14 01:49:45;;;;;;;0.90;0.30;;;;;;;6.95;92.58;100077.19;2584061;55;20598;-70
2021/09/14 01:52:12;;;;;;;3.20;0.40;;;;;;;7.04;91.04;100068.59;2583897;55;20677;-67
2021/09/14 01:54:41;;;;;;;2.22;0.32;;;;;;;7.13;90.64;100077.69;2584005;55;20617;-70
2021/09/14 01:57:12;;;;;;;1.58;0.43;;;;;;;7.10;90.78;100068.13;2583928;55;20127;-70
2021/09/14 01:59:41;;;;;;;2.10;0.40;;;;;;;7.12;91.54;100085.78;2583876;55;20120;-70
2021/09/14 02:02:13;;;;;;;0.82;0.30;;;;;;;7.06;91.75;100079.06;2583927;55;20125;-70
2021/09/14 02:04:48;;;;;;;2.58;0.47;;;;;;;7.04;91.59;100076.53;2584044;55;20674;-70
2021/09/14 02:24:22;;;;;;;2.55;0.43;;;;;;;7.08;88.79;100075.34;2584080;55;20109;-67
2021/09/14 02:43:56;;;;;;;0.57;0.30;;;;;;;6.86;90.72;100051.31;2583626;55;20109;-70
2021/09/14 03:00:24;;;;;;;1.27;0.40;;;;;;;6.95;88.98;100058.63;2578579;55;20117;-67
2021/09/14 03:02:53;;;;;;;1.30;0.30;;;;;;;6.98;89.41;100037.19;2583881;55;20124;-70
2021/09/14 03:05:21;;;;;;;1.40;0.20;;;;;;;7.01;88.24;100041.41;2583781;55;20644;-67
2021/09/14 03:07:50;;;;;;;1.48;0.65;;;;;;;7.00;89.90;100037.06;2583826;55;20116;-67
2021/09/14 03:10:18;;;;;;;4.65;0.35;;;;;;;6.99;88.74;100046.00;2583755;55;20109;-67
2021/09/14 03:12:45;;;;;;;1.12;0.45;;;;;;;6.98;88.42;100042.47;2583958;55;20155;-67
2021/09/14 03:15:13;;;;;;;1.83;0.50;;;;;;;6.98;88.81;100037.19;2583676;55;20117;-70
2021/09/14 03:17:42;;;;;;;1.92;0.65;;;;;;;6.96;89.21;100044.41;2583557;55;20150;-67
2021/09/14 03:20:12;;;;;;;0.95;0.30;;;;;;;6.99;89.73;100038.88;2583640;55;20123;-70
2021/09/14 03:22:40;;;;;;;1.23;0.40;;;;;;;7.04;86.88;100023.50;2583709;55;20127;-68
2021/09/14 03:25:11;;;;;;;4.07;0.50;;;;;;;7.02;87.66;100035.16;2583857;55;20220;-69
2021/09/14 03:27:39;;;;;;;4.12;0.45;;;;;;;7.06;86.47;100036.63;2583742;55;20136;-67
2021/09/14 03:30:08;;;;;;;2.10;0.30;;;;;;;7.02;86.10;100025.41;2583759;55;20128;-67
2021/09/14 03:32:36;;;;;;;0.95;0.40;;;;;;;6.99;85.27;100025.59;2583564;55;20131;-67
2021/09/14 03:35:05;;;;;;;2.33;0.40;;;;;;;7.01;85.01;100023.69;2583534;55;20109;-69
2021/09/14 03:37:35;;;;;;;0.25;0.10;;;;;;;7.05;83.94;100038.44;2583705;55;20097;-67
2021/09/14 03:40:04;;;;;;;1.55;0.40;;;;;;;6.96;83.45;100009.91;2583558;55;20542;-67
2021/09/14 03:42:31;;;;;;;1.20;0.30;;;;;;;7.12;84.50;100038.00;2583594;55;20638;-67
2021/09/14 03:45:00;;;;;;;1.23;0.40;;;;;;;7.13;85.00;100031.75;2583719;55;20606;-69
2021/09/14 03:47:28;;;;;;;3.00;0.55;;;;;;;7.13;85.37;100039.72;2583616;55;20118;-70
2021/09/14 03:49:56;;;;;;;2.17;0.47;;;;;;;7.13;85.08;100039.72;2578422;55;20117;-70
2021/09/14 03:52:24;;;;;;;1.40;0.28;;;;;;;7.04;84.04;100027.94;2583563;55;20678;-70
2021/09/14 03:54:54;;;;;;;2.08;0.40;;;;;;;7.12;83.59;100038.84;2583147;55;20196;-67
2021/09/14 03:57:21;;;;;;;2.78;0.43;;;;;;;7.08;83.92;100032.91;2583542;55;20397;-67
2021/09/14 03:59:50;;;;;;;6.85;0.50;;;;;;;7.14;84.00;100036.94;2583483;55;20121;-67
2021/09/14 04:02:28;;;;;;;3.00;0.30;;;;;;;7.17;83.27;100030.56;2583504;55;20132;-68
2021/09/14 04:05:08;;;;;;;0.65;0.30;;;;;;;7.19;82.97;100028.62;2583684;55;20113;-67
2021/09/14 04:07:50;;;;;;;1.33;0.40;;;;;;;7.22;82.94;100012.50;2583818;55;20116;-69
2021/09/14 04:10:20;;;;;;;2.35;0.40;;;;;;;7.26;82.20;100024.59;2583657;55;20120;-67
2021/09/14 04:12:48;;;;;;;4.07;0.62;;;;;;;7.31;81.82;100017.13;2583380;55;20117;-70
2021/09/14 04:15:16;;;;;;;3.00;0.30;;;;;;;7.33;82.43;100015.22;2583447;55;20123;-71
2021/09/14 04:17:44;;;;;;;2.22;0.40;;;;;;;7.29;81.22;100008.44;2583495;55;20101;-68
2021/09/14 04:20:12;;;;;;;2.53;0.70;;;;;;;7.31;80.90;100014.47;2583417;55;20112;-71
2021/09/14 04:22:41;;;;;;;3.60;0.45;;;;;;;7.31;80.13;100011.00;2583057;55;20108;-70
2021/09/14 04:25:10;;;;;;;2.30;0.40;;;;;;;7.31;80.04;100033.06;2583449;55;20120;-67
2021/09/14 04:27:39;;;;;;;0.80;0.37;;;;;;;7.36;79.94;100025.62;2583720;55;20164;-71
2021/09/14 04:30:09;;;;;;;2.20;0.43;;;;;;;7.34;79.34;100027.53;2583316;55;20105;-70
2021/09/14 04:32:38;;;;;;;6.60;2.25;;;;;;;7.45;80.49;100018.78;2583409;55;20519;-71
2021/09/14 04:35:06;;;;;;;1.98;0.50;;;;;;;7.66;79.22;100020.81;2583393;55;20116;-68
2021/09/14 04:37:34;;;;;;;1.95;0.47;;;;;;;7.83;78.73;100016.91;2583408;55;20124;-71
2021/09/14 04:40:06;;;;;;;4.43;0.50;;;;;;;8.03;77.91;100001.28;2581738;55;20117;-68
2021/09/14 04:42:33;;;;;;;1.02;0.47;;;;;;;8.14;78.54;100024.38;2581034;55;20128;-67
2021/09/14 04:45:04;;;;;;;1.40;0.57;;;;;;;8.25;77.90;100015.59;2581744;55;20136;-67
2021/09/14 04:47:32;;;;;;;4.10;0.40;;;;;;;8.34;77.29;100009.56;2580272;55;20105;-67
2021/09/14 04:50:00;;;;;;;1.73;0.70;;;;;;;8.47;77.54;100020.09;2581525;55;20113;-67
2021/09/14 04:52:28;;;;;;;11.32;1.60;;;;;;;8.55;73.98;100012.38;2576247;55;20614;-67
2021/09/14 04:54:56;;;;;;;0.98;0.40;;;;;;;8.69;73.87;100008.66;2581498;55;20620;-67
2021/09/14 04:57:23;;;;;;;2.70;0.40;;;;;;;8.68;74.81;100004.28;2581538;55;20115;-67
2021/09/14 04:59:52;;;;;;;1.25;0.37;;;;;;;8.66;75.36;99986.75;2580944;55;20645;-67
2021/09/14 05:02:21;;;;;;;1.83;0.37;;;;;;;8.66;73.19;99998.25;2581534;55;20129;-68
2021/09/14 05:04:49;;;;;;;5.60;0.70;;;;;;;8.64;74.33;100016.16;2580547;55;20138;-72
2021/09/14 05:07:17;;;;;;;0.45;0.20;;;;;;;8.55;74.85;100000.91;2582392;55;20131;-71
2021/09/14 05:09:45;;;;;;;1.85;0.32;;;;;;;8.59;75.10;99999.69;2576933;55;20615;-71
2021/09/14 05:12:13;;;;;;;3.55;0.60;;;;;;;8.76;74.63;99993.91;2581609;55;20642;-72
2021/09/14 05:14:41;;;;;;;1.65;0.40;;;;;;;8.89;73.17;99996.44;2582621;55;20525;-67
2021/09/14 05:17:11;;;;;;;8.50;1.20;;;;;;;8.89;73.99;99983.16;2582946;55;20134;-70
2021/09/14 05:19:41;;;;;;;9.43;2.05;;;;;;;8.80;75.37;100006.94;2583943;55;20101;-70
2021/09/14 05:22:12;;;;;;;21.55;8.38;;;;;;;8.79;75.53;100007.94;2583747;55;20121;-71
2021/09/14 05:24:39;;;;;;;12.30;1.67;;;;;;;8.81;75.46;99995.34;2583508;55;20635;-68
2021/09/14 05:27:07;;;;;;;5.22;0.62;;;;;;;8.67;75.31;99991.97;2583645;55;20105;-68
2021/09/14 05:29:35;;;;;;;5.07;2.53;;;;;;;8.67;75.43;99999.94;2582307;55;20123;-69
2021/09/14 05:32:03;;;;;;;0.57;0.37;;;;;;;8.89;76.09;100004.44;2583565;55;20617;-71
2021/09/14 05:34:33;;;;;;;3.10;1.25;;;;;;;8.95;75.06;100004.88;2583514;55;20116;-73
2021/09/14 05:37:03;;;;;;;3.00;0.80;;;;;;;8.76;76.56;99998.38;2583161;55;20656;-71
2021/09/14 05:39:33;;;;;;;;;;;;;;;8.94;75.37;99992.56;2582453;55;20114;-71
2021/09/14 05:42:01;;;;;;;1.95;0.37;;;;;;;8.88;75.93;99980.59;2583516;55;20003;-72
2021/09/14 05:44:29;;;;;;;1.23;0.50;;;;;;;8.74;77.72;99997.66;2583255;55;20115;-67
2021/09/14 05:46:57;;;;;;;7.50;1.23;;;;;;;8.70;77.74;99991.72;2582683;55;20113;-69
2021/09/14 05:49:26;;;;;;;4.15;0.60;;;;;;;8.56;79.82;99997.28;2582793;55;20121;-67
2021/09/14 05:51:53;;;;;;;2.47;0.45;;;;;;;8.44;78.19;99989.28;2582880;55;20183;-67
2021/09/14 05:54:23;;;;;;;6.97;0.70;;;;;;;8.37;78.63;99982.75;2583660;55;20097;-68
2021/09/14 05:56:51;;;;;;;3.10;0.60;;;;;;;8.25;80.30;99996.97;2583527;55;20120;-70
2021/09/14 05:59:18;;;;;;;2.62;0.60;;;;;;;8.23;81.54;99985.63;2583708;55;20132;-72
2021/09/14 06:01:46;;;;;;;3.12;0.95;;;;;;;8.20;82.39;100000.00;2578409;55;20134;-68
2021/09/14 06:04:15;;;;;;;4.65;0.55;;;;;;;8.08;80.67;99977.84;2583853;55;20117;-67
2021/09/14 06:06:43;;;;;;;1.15;0.30;;;;;;;8.00;81.51;99993.53;2583878;55;20140;-66
2021/09/14 06:09:11;;;;;;;20.65;1.77;;;;;;;8.04;81.78;99979.06;2584004;55;20686;-73
2021/09/14 06:11:41;;;;;;;4.70;0.85;;;;;;;8.03;82.71;99988.00;2583830;55;20124;-71
2021/09/14 06:14:09;;;;;;;3.85;0.73;;;;;;;8.01;82.82;99997.88;2583934;55;20698;-67
2021/09/14 06:16:40;;;;;;;7.80;4.45;;;;;;;7.99;83.35;99997.16;2582726;55;20139;-71
2021/09/14 06:19:08;;;;;;;3.30;0.95;;;;;;;7.99;83.52;99989.19;2581986;55;20113;-67
2021/09/14 06:21:38;;;;;;;3.17;0.60;;;;;;;8.00;85.40;99996.19;2582157;55;20110;-70
2021/09/14 06:24:06;;;;;;;12.52;2.20;;;;;;;8.06;82.39;99990.41;2582074;55;20131;-66
2021/09/14 06:26:35;;;;;;;1.83;0.40;;;;;;;8.06;83.10;99990.41;2582362;55;20124;-66
2021/09/14 06:29:04;;;;;;;3.12;0.50;;;;;;;8.09;82.33;99984.84;2582195;55;20131;-70
2021/09/14 06:31:33;;;;;;;2.92;0.40;;;;;;;8.12;82.37;99979.34;2582178;55;20135;-66
2021/09/14 06:34:02;;;;;;;0.77;0.50;;;;;;;8.11;83.38;99990.06;2582034;55;20126;-70
2021/09/14 06:36:29;;;;;;;4.37;0.98;;;;;;;8.04;83.75;99995.84;2582278;55;20128;-67
2021/09/14 06:38:57;;;;;;;1.48;0.50;;;;;;;8.01;83.26;100006.72;2581765;55;20131;-67
2021/09/14 06:41:27;;;;;;;2.03;0.32;;;;;;;8.01;83.69;99997.88;2583193;55;20117;-70
2021/09/14 06:43:55;;;;;;;5.45;0.50;;;;;;;8.02;84.59;100007.56;2583815;55;20562;-70
2021/09/14 06:46:26;;;;;;;1.75;0.30;;;;;;;8.05;83.82;100020.63;2583795;55;20109;-69
2021/09/14 06:48:55;;;;;;;0.98;0.50;;;;;;;8.08;82.16;99996.47;2583917;55;20118;-69
2021/09/14 06:51:22;;;;;;;0.40;0.25;;;;;;;8.02;83.02;100002.25;2583766;55;20108;-65
2021/09/14 06:53:50;;;;;;;1.77;0.40;;;;;;;7.94;84.88;100024.94;2583784;55;20629;-70
2021/09/14 06:56:18;;;;;;;1.10;0.47;;;;;;;7.93;84.25;100017.06;2583918;55;20136;-68
2021/09/14 06:58:47;;;;;;;2.58;0.50;;;;;;;7.85;85.27;100028.28;2583927;55;20132;-67
2021/09/14 07:01:18;;;;;;;4.18;0.90;;;;;;;7.89;83.94;100027.06;2583710;55;20120;-70
2021/09/14 07:03:47;;;;;;;;;;;;;;;7.98;84.00;100019.38;2584422;55;20116;-67
2021/09/14 07:06:15;;;;;;;2.03;0.55;;;;;;;7.74;85.69;100023.75;2583742;55;19988;-66
2021/09/14 07:08:43;;;;;;;1.58;0.70;;;;;;;7.71;85.27;100028.44;2583714;55;20110;-70
2021/09/14 07:11:11;;;;;;;1.17;0.30;;;;;;;7.69;85.77;100014.44;2583910;55;20534;-66
2021/09/14 07:13:38;;;;;;;3.72;1.00;;;;;;;7.69;85.15;100040.97;2583741;55;20115;-69
2021/09/14 07:16:06;;;;;;;4.53;0.70;;;;;;;7.61;86.73;100042.38;2583689;55;20118;-69
2021/09/14 07:18:38;;;;;;;1.77;0.55;;;;;;;7.65;84.00;100038.56;2583683;55;20125;-66
2021/09/14 07:21:08;;;;;;;1.95;0.60;;;;;;;7.62;84.04;100057.37;2583691;55;20113;-66
2021/09/14 07:23:36;;;;;;;0.88;0.52;;;;;;;7.63;83.92;100061.72;2583587;55;20169;-70
2021/09/14 07:26:03;;;;;;;1.50;0.60;;;;;;;7.54;85.35;100053.56;2583626;55;20124;-69
2021/09/14 07:28:31;;;;;;;2.75;0.43;;;;;;;7.55;84.92;100055.28;2580803;55;20134;-70
2021/09/14 07:30:59;;;;;;;0.98;0.60;;;;;;;7.55;84.81;100045.50;2581041;55;20153;-70
2021/09/14 07:33:27;;;;;;;2.50;0.45;;;;;;;7.57;85.10;100046.25;2581135;55;20786;-70
2021/09/14 07:35:54;;;;;;;1.00;0.45;;;;;;;7.50;84.37;100026.41;2581049;55;20112;-70
2021/09/14 07:38:24;;;;;;;0.95;0.47;;;;;;;7.58;85.93;100050.59;2581005;55;20509;-71
2021/09/14 07:40:51;;;;;;;0.30;0.20;;;;;;;7.59;85.45;100078.00;2581079;55;20117;-71
2021/09/14 07:43:19;;;;;;;5.47;0.55;;;;;;;7.55;85.93;100066.75;2583131;55;20614;-71
2021/09/14 07:45:47;;;;;;;2.67;0.35;;;;;;;7.58;85.33;100077.13;2577988;55;20636;-70
2021/09/14 07:48:15;;;;;;;5.90;1.80;;;;;;;7.66;86.81;100069.47;2580825;55;20120;-71
2021/09/14 07:50:42;;;;;;;6.15;1.27;;;;;;;7.73;85.69;100077.00;2580971;55;20119;-70
2021/09/14 07:53:10;;;;;;;0.60;0.55;;;;;;;7.80;86.52;100092.34;2581004;55;20124;-70
2021/09/14 07:55:39;;;;;;;0.98;0.50;;;;;;;7.87;84.88;100083.94;2581094;55;20135;-70
2021/09/14 07:58:07;;;;;;;4.22;0.68;;;;;;;7.83;84.95;100099.25;2581139;55;20163;-71
2021/09/14 08:00:35;;;;;;;4.15;0.60;;;;;;;7.83;86.01;100095.75;2580919;55;20113;-70
2021/09/14 08:03:03;;;;;;;14.70;9.00;;;;;;;7.94;85.23;100079.84;2580919;55;20117;-70
2021/09/14 08:05:31;;;;;;;4.82;1.05;;;;;;;7.97;86.40;100092.06;2580866;55;20131;-70
2021/09/14 08:07:59;;;;;;;7.95;1.30;;;;;;;8.01;85.83;100097.03;2580645;55;20143;-70
2021/09/14 08:10:26;;;;;;;3.20;1.00;;;;;;;8.02;87.80;100103.22;2580726;55;20127;-70
2021/09/14 08:12:58;;;;;;;3.22;0.40;;;;;;;8.05;87.06;100122.41;2581169;55;20139;-70
2021/09/14 08:15:26;;;;;;;4.18;1.12;;;;;;;8.06;85.89;100088.72;2580987;55;20123;-70
2021/09/14 08:17:54;;;;;;;23.10;9.30;;;;;;;8.04;87.66;100117.22;2580829;55;20181;-70
2021/09/14 08:20:22;;;;;;;10.88;2.00;;;;;;;8.06;85.26;100107.31;2580699;55;20131;-70
2021/09/14 08:22:49;;;;;;;2.10;0.50;;;;;;;8.11;84.96;100118.44;2580889;55;20128;-70
2021/09/14 08:25:17;;;;;;;2.67;0.50;;;;;;;8.10;85.61;100118.56;2580867;55;20629;-70
2021/09/14 08:27:45;;;;;;;1.50;0.88;;;;;;;8.12;86.49;100124.63;2581366;55;20120;-71
2021/09/14 08:30:15;;;;;;;1.25;0.50;;;;;;;8.15;88.09;100127.88;2581076;55;20135;-70
2021/09/14 08:32:44;;;;;;;6.00;1.15;;;;;;;8.19;85.74;100121.38;2580599;55;20125;-70
2021/09/14 08:35:12;;;;;;;0.30;0.20;;;;;;;8.21;85.07;100127.41;2580740;55;20116;-70
2021/09/14 08:37:39;;;;;;;3.55;0.60;;;;;;;8.19;85.61;100131.19;2580783;55;20124;-70
2021/09/14 08:40:08;;;;;;;1.15;0.45;;;;;;;8.23;86.12;100134.47;2575561;55;20134;-70
2021/09/14 08:42:38;;;;;;;5.15;0.50;;;;;;;8.34;85.86;100130.00;2576151;55;20133;-70
2021/09/14 08:45:07;;;;;;;4.35;0.73;;;;;;;8.38;87.41;100125.31;2581370;55;20132;-70
2021/09/14 08:47:38;;;;;;;2.62;0.60;;;;;;;8.41;84.47;100138.38;2581510;55;20124;-70
2021/09/14 08:50:07;;;;;;;4.07;0.60;;;;;;;8.36;84.18;100132.56;2581628;55;20124;-70
2021/09/14 08:52:34;;;;;;;0.88;0.50;;;;;;;8.30;85.58;100146.31;2581621;55;20105;-71
2021/09/14 08:55:02;;;;;;;4.05;0.82;;;;;;;8.18;86.30;100156.88;2581600;55;20136;-70
2021/09/14 08:57:30;;;;;;;1.10;0.90;;;;;;;8.21;86.23;100147.84;2581347;55;20129;-70
2021/09/14 08:59:59;;;;;;;1.10;0.30;;;;;;;8.20;85.26;100156.78;2581510;55;20135;-70
2021/09/14 09:02:26;;;;;;;0.70;0.20;;;;;;;8.18;86.03;100150.75;2581504;55;20128;-71
2021/09/14 09:04:57;;;;;;;1.55;0.70;;;;;;;8.14;86.19;100139.50;2581463;55;20129;-70
2021/09/14 09:07:37;;;;;;;1.83;0.40;;;;;;;8.08;86.89;100150.56;2581497;55;20547;-70
2021/09/14 09:10:09;;;;;;;2.55;0.80;;;;;;;8.12;87.71;100152.03;2581673;55;20117;-70
2021/09/14 09:12:40;;;;;;;3.08;0.52;;;;;;;8.10;87.81;100175.19;2581357;55;20124;-70
2021/09/14 09:15:11;;;;;;;3.67;1.20;;;;;;;8.08;89.13;100169.16;2581376;55;20152;-70
2021/09/14 09:17:39;;;;;;;0.97;0.50;;;;;;;8.13;87.95;100179.44;2581584;55;20151;-70
2021/09/14 09:20:09;;;;;;;2.00;0.30;;;;;;;8.16;87.63;100180.06;2581187;55;20179;-70
2021/09/14 09:22:38;;;;;;;1.42;0.37;;;;;;;8.07;87.46;100178.97;2581484;55;20141;-71
2021/09/14 09:25:07;;;;;;;6.62;0.57;;;;;;;8.07;88.06;100183.41;2581468;55;20144;-70
2021/09/14 09:27:35;;;;;;;6.40;0.50;;;;;;;8.03;88.46;100179.28;2581495;55;20147;-70
2021/09/14 09:30:05;;;;;;;2.97;0.40;;;;;;;8.12;87.23;100177.75;2581866;55;20546;-70
2021/09/14 09:32:44;;;;;;;0.68;0.40;;;;;;;8.16;87.66;100182.72;2581211;55;20135;-70
2021/09/14 09:35:24;;;;;;;0.50;0.30;;;;;;;8.13;87.20;100193.59;2581557;55;20643;-70
2021/09/14 09:37:52;;;;;;;0.80;0.30;;;;;;;8.17;87.67;100170.31;2581562;55;20121;-69
2021/09/14 09:40:27;;;;;;;1.12;0.40;;;;;;;8.19;86.95;100203.75;2581579;55;20129;-69
2021/09/14 09:42:55;;;;;;;1.20;0.43;;;;;;;8.14;86.31;100199.75;2581433;55;20184;-69
2021/09/14 09:45:22;;;;;;;1.77;0.85;;;;;;;8.13;88.18;100195.38;2581182;55;20116;-70
2021/09/14 09:47:50;;;;;;;3.47;0.68;;;;;;;8.16;87.15;100188.03;2581560;55;20554;-70
2021/09/14 09:50:20;;;;;;;6.85;1.40;;;;;;;8.18;89.77;100204.72;2581262;55;20112;-70
2021/09/14 09:52:49;;;;;;;1.37;0.40;;;;;;;8.19;88.43;100221.53;2580983;55;20113;-70
2021/09/14 09:55:17;;;;;;;1.25;0.30;;;;;;;8.15;88.57;100204.97;2581523;55;20113;-69
2021/09/14 09:57:47;;;;;;;1.40;0.40;;;;;;;8.23;87.48;100208.88;2581567;55;20120;-71
2021/09/14 10:00:17;;;;;;;2.20;0.45;;;;;;;8.23;86.63;100214.19;2581350;55;20134;-70
2021/09/14 10:02:49;;;;;;;2.60;0.70;;;;;;;8.20;88.95;100225.88;2581334;55;20118;-71
2021/09/14 10:05:17;;;;;;;;;;;;;;;8.33;87.83;100236.47;2576306;55;20115;-69
2021/09/14 10:07:48;;;;;;;1.23;0.30;;;;;;;8.23;88.79;100230.13;2580977;55;19996;-70
2021/09/14 10:10:16;;;;;;;1.35;0.52;;;;;;;8.18;88.71;100239.28;2581486;55;20135;-70
2021/09/14 10:12:43;;;;;;;2.08;0.60;;;;;;;8.16;89.98;100240.34;2581387;55;20128;-70
2021/09/14 10:15:14;;;;;;;2.78;0.77;;;;;;;8.13;90.04;100244.09;2581326;55;20126;-70
2021/09/14 10:17:50;;;;;;;3.20;0.65;;;;;;;8.19;90.18;100256.91;2581178;55;20515;-70
2021/09/14 10:20:21;;;;;;;0.82;0.40;;;;;;;8.16;90.41;100251.81;2581134;55;20112;-70
2021/09/14 10:23:05;;;;;;;3.15;0.70;;;;;;;8.28;90.00;100243.91;2581224;55;20132;-70
2021/09/14 10:25:33;;;;;;;1.30;0.50;;;;;;;8.24;91.16;100247.78;2581570;55;20113;-70
2021/09/14 10:28:09;;;;;;;2.83;0.77;;;;;;;8.26;91.38;100267.94;2581507;55;20117;-69
2021/09/14 10:30:38;;;;;;;2.67;0.70;;;;;;;8.19;92.81;100267.53;2581411;55;20178;-70
2021/09/14 10:33:06;;;;;;;1.60;0.40;;;;;;;8.18;91.81;100260.53;2581040;55;20113;-69
2021/09/14 10:35:38;;;;;;;1.35;0.62;;;;;;;8.23;91.21;100259.38;2581167;55;20126;-70
2021/09/14 10:38:12;;;;;;;1.42;0.55;;;;;;;8.20;91.96;100263.91;2581356;55;20637;-70
2021/09/14 10:40:42;;;;;;;3.12;0.68;;;;;;;8.28;90.95;100268.69;2575898;55;20693;-70
2021/09/14 10:43:23;;;;;;;2.97;0.82;;;;;;;8.40;90.68;100253.63;2581259;55;20659;-69
2021/09/14 10:45:50;;;;;;;26.75;14.40;;;;;;;8.45;91.39;100271.91;2581111;55;20641;-69
2021/09/14 10:48:23;;;;;;;2.92;1.67;;;;;;;8.47;92.83;100275.34;2581161;55;20123;-69
2021/09/14 10:50:51;;;;;;;3.47;1.30;;;;;;;8.43;95.33;100285.34;2581179;55;20105;-70
2021/09/14 10:53:26;;;;;;;3.30;1.27;;;;;;;8.40;95.76;100296.16;2581165;55;20147;-69
2021/09/14 10:55:55;;;;;;;1.00;0.50;;;;;;;8.37;95.31;100291.09;2581343;55;20123;-69
2021/09/14 10:58:23;;;;;;;1.98;0.57;;;;;;;8.36;95.12;100290.22;2581161;55;20116;-69
2021/09/14 11:00:51;;;;;;;8.02;1.10;;;;;;;8.27;100.00;100298.03;2581178;55;20635;-69
2021/09/14 11:03:19;;;;;;;3.47;1.42;;;;;;;8.21;100.00;100302.81;2581061;55;20523;-69
2021/09/14 11:05:50;;;;;;;2.80;0.88;;;;;;;8.13;100.00;100314.97;2575689;55;20695;-68
2021/09/14 11:08:25;;;;;;;1.93;0.70;;;;;;;8.13;100.00;100313.19;2581260;55;20625;-69
2021/09/14 11:10:59;;;;;;;1.15;0.50;;;;;;;8.11;100.00;100317.72;2581187;55;20240;-69
2021/09/14 11:13:28;;;;;;;1.08;0.80;;;;;;;8.05;100.00;100318.19;2581095;55;20128;-69
2021/09/14 11:16:01;;;;;;;1.98;0.60;;;;;;;8.08;100.00;100315.28;2580960;55;20117;-69
2021/09/14 11:18:30;;;;;;;2.87;0.73;;;;;;;8.08;100.00;100321.47;2581052;55;20240;-69
2021/09/14 11:21:05;;;;;;;5.53;0.90;;;;;;;8.05;100.00;100326.97;2580813;55;20125;-69
2021/09/14 11:23:34;;;;;;;3.22;0.60;;;;;;;8.05;100.00;100334.12;2581289;55;20121;-69
2021/09/14 11:26:03;;;;;;;8.60;3.33;;;;;;;8.12;100.00;100329.22;2581411;55;20121;-69
2021/09/14 11:28:31;;;;;;;7.57;4.18;;;;;;;8.06;100.00;100330.50;2581107;55;20124;-69
2021/09/14 11:31:01;;;;;;;9.55;4.65;;;;;;;8.14;100.00;100338.78;2580990;55;20544;-69
2021/09/14 11:33:30;;;;;;;1.17;0.60;;;;;;;8.19;98.38;100339.28;2581271;55;20143;-69
2021/09/14 11:36:00;;;;;;;0.40;0.30;;;;;;;8.19;99.75;100339.28;2581071;55;20105;-69
2021/09/14 11:38:29;;;;;;;1.00;0.40;;;;;;;8.16;98.40;100346.63;2580934;55;20128;-70
2021/09/14 11:41:01;;;;;;;3.05;0.70;;;;;;;8.17;98.81;100337.72;2580977;55;20121;-69
2021/09/14 11:43:31;;;;;;;2.42;1.30;;;;;;;8.10;100.00;100342.59;2580935;55;20614;-69
2021/09/14 11:46:00;;;;;;;8.48;0.85;;;;;;;8.08;97.75;100333.91;2580822;55;20117;-69
2021/09/14 11:48:30;;;;;;;0.70;0.50;;;;;;;8.16;98.13;100355.47;2580846;55;20630;-69
2021/09/14 11:51:05;;;;;;;1.58;0.52;;;;;;;8.13;99.65;100358.34;2580898;55;20117;-69
2021/09/14 11:53:34;;;;;;;12.43;0.98;;;;;;;8.11;98.46;100359.41;2581015;55;20116;-70
2021/09/14 11:56:11;;;;;;;0.52;0.50;;;;;;;8.15;100.00;100363.53;2580965;55;20133;-69
2021/09/14 11:58:42;;;;;;;2.33;0.60;;;;;;;8.12;99.15;100361.97;2581192;55;20558;-70
2021/09/14 12:01:11;;;;;;;2.17;0.52;;;;;;;8.11;98.76;100373.53;2580938;55;20526;-69
2021/09/14 12:03:42;;;;;;;3.67;0.47;;;;;;;8.16;98.35;100370.53;2580818;55;20522;-69
2021/09/14 12:06:11;;;;;;;1.83;0.40;;;;;;;8.21;98.92;100371.09;2580940;55;20518;-69
2021/09/14 12:08:41;;;;;;;3.45;0.80;;;;;;;8.23;100.00;100382.44;2580573;55;20126;-68
2021/09/14 12:11:11;;;;;;;4.53;0.50;;;;;;;8.20;100.00;100388.81;2580739;55;20132;-69
2021/09/14 12:13:44;;;;;;;2.03;0.70;;;;;;;8.19;100.00;100395.09;2580966;55;20124;-69
2021/09/14 12:16:14;;;;;;;3.87;0.70;;;;;;;8.13;100.00;100390.25;2581426;55;20122;-69
2021/09/14 12:18:42;;;;;;;0.60;0.57;;;;;;;8.13;100.00;100384.06;2581597;55;20522;-70
2021/09/14 12:21:10;;;;;;;3.15;0.73;;;;;;;8.04;100.00;100391.72;2581512;55;20131;-70
2021/09/14 12:23:41;;;;;;;1.62;0.95;;;;;;;7.98;100.00;100399.25;2581588;55;20665;-70
2021/09/14 12:26:19;;;;;;;1.98;0.70;;;;;;;7.99;100.00;100390.34;2581451;55;20416;-69
2021/09/14 12:28:47;;;;;;;0.60;0.50;;;;;;;7.92;100.00;100393.44;2581910;55;20127;-70
2021/09/14 12:31:15;;;;;;;1.35;0.50;;;;;;;7.83;100.00;100393.19;2581548;55;20120;-69
2021/09/14 12:33:43;;;;;;;1.23;0.77;;;;;;;7.70;100.00;100409.13;2581527;55;20129;-69